createdAt,value
2023-02-24T00:02:15.244Z,3.08
2023-02-24T00:04:42.459Z,3.10
2023-02-24T00:07:11.642Z,3.14
2023-02-24T00:09:39.517Z,3.10
2023-02-24T00:12:10.052Z,3.14
2023-02-24T00:14:39.572Z,3.12
2023-02-24T00:17:08.388Z,3.19
2023-02-24T00:19:37.750Z,3.22
2023-02-24T00:22:06.549Z,3.24
2023-02-24T00:24:34.745Z,3.25
2023-02-24T00:27:08.012Z,3.30
2023-02-24T00:29:40.320Z,3.30
2023-02-24T00:32:13.074Z,3.38
2023-02-24T00:34:41.103Z,3.47
2023-02-24T00:37:09.414Z,3.46
2023-02-24T00:39:41.839Z,3.47
2023-02-24T00:42:11.989Z,3.48
2023-02-24T00:44:48.645Z,3.42
2023-02-24T00:47:16.989Z,3.47
2023-02-24T00:49:44.796Z,3.49
2023-02-24T00:52:18.158Z,3.42
2023-02-24T00:54:47.206Z,3.54
2023-02-24T00:57:14.923Z,3.51
2023-02-24T00:59:47.578Z,3.50
2023-02-24T01:02:15.711Z,3.51
2023-02-24T01:04:44.857Z,3.52
2023-02-24T01:07:14.201Z,3.54
2023-02-24T01:09:43.993Z,3.56
2023-02-24T01:12:31.557Z,3.55
2023-02-24T01:14:59.524Z,3.55
2023-02-24T01:17:26.992Z,3.60
2023-02-24T01:19:55.134Z,3.67
2023-02-24T01:22:23.941Z,3.66
2023-02-24T01:24:51.141Z,3.65
2023-02-24T01:27:19.577Z,3.67
2023-02-24T01:29:48.165Z,3.70
2023-02-24T01:32:19.766Z,3.69
2023-02-24T01:34:48.275Z,3.69
2023-02-24T01:37:19.556Z,3.70
2023-02-24T01:39:47.438Z,3.67
2023-02-24T01:42:19.331Z,3.69
2023-02-24T01:44:47.655Z,3.76
2023-02-24T01:47:23.323Z,3.73
2023-02-24T01:49:52.900Z,3.77
2023-02-24T01:52:21.887Z,3.79
2023-02-24T01:55:08.557Z,3.84
2023-02-24T01:57:38.742Z,3.86
2023-02-24T02:00:12.151Z,3.84
2023-02-24T02:02:45.349Z,3.79
2023-02-24T02:05:13.822Z,3.77
2023-02-24T02:07:42.255Z,3.82
2023-02-24T02:10:11.243Z,3.83
2023-02-24T02:12:44.350Z,3.80
2023-02-24T02:15:13.796Z,3.79
2023-02-24T02:18:20.061Z,3.79
2023-02-24T02:21:19.182Z,3.78
2023-02-24T02:24:13.780Z,3.73
2023-02-24T02:27:02.131Z,3.74
2023-02-24T02:29:51.453Z,3.70
2023-02-24T02:32:36.356Z,3.68
2023-02-24T02:35:04.119Z,3.75
2023-02-24T02:37:44.828Z,3.73
2023-02-24T02:40:18.734Z,3.73
2023-02-24T02:42:58.966Z,3.73
2023-02-24T02:45:33.667Z,3.77
2023-02-24T02:48:12.274Z,3.74
2023-02-24T02:51:05.116Z,3.78
2023-02-24T02:53:52.964Z,3.77
2023-02-24T02:56:25.366Z,3.79
2023-02-24T02:58:54.668Z,3.83
2023-02-24T03:01:25.245Z,3.82
2023-02-24T03:03:55.673Z,3.77
2023-02-24T03:07:15.757Z,3.80
2023-02-24T03:09:45.636Z,3.80
2023-02-24T03:12:16.669Z,3.79
2023-02-24T03:15:07.711Z,3.80
2023-02-24T03:17:40.904Z,3.77
2023-02-24T03:20:22.463Z,3.75
2023-02-24T03:22:55.068Z,3.78
2023-02-24T03:25:26.106Z,3.74
2023-02-24T03:27:57.210Z,3.75
2023-02-24T03:31:06.055Z,3.74
2023-02-24T03:33:41.390Z,3.70
2023-02-24T03:36:08.981Z,3.72
2023-02-24T03:38:38.671Z,3.70
2023-02-24T03:41:12.537Z,3.74
2023-02-24T03:43:45.366Z,3.73
2023-02-24T03:46:15.153Z,3.69
2023-02-24T03:48:48.952Z,3.73
2023-02-24T03:51:23.421Z,3.75
2023-02-24T03:54:18.446Z,3.75
2023-02-24T03:57:09.214Z,3.79
2023-02-24T03:59:44.950Z,3.77
2023-02-24T04:02:19.796Z,3.82
2023-02-24T04:04:59.704Z,3.85
2023-02-24T04:07:32.272Z,3.88
2023-02-24T04:10:12.753Z,3.88
2023-02-24T04:12:52.462Z,3.91
2023-02-24T04:15:43.749Z,3.95
2023-02-24T04:18:21.207Z,3.99
2023-02-24T04:20:51.135Z,4.02
2023-02-24T04:23:23.255Z,4.03
2023-02-24T04:25:52.755Z,4.08
2023-02-24T04:28:22.369Z,4.12
2023-02-24T04:30:53.198Z,4.10
2023-02-24T04:33:20.761Z,4.14
2023-02-24T04:35:50.789Z,4.15
2023-02-24T04:38:19.847Z,4.22
2023-02-24T04:40:49.991Z,4.25
2023-02-24T04:43:17.547Z,4.22
2023-02-24T04:45:45.344Z,4.25
2023-02-24T04:48:13.133Z,4.28
2023-02-24T04:50:43.128Z,4.31
2023-02-24T04:53:16.695Z,4.37
2023-02-24T04:55:50.535Z,4.35
2023-02-24T04:58:20.049Z,4.40
2023-02-24T05:00:49.312Z,4.41
2023-02-24T05:03:18.501Z,4.40
2023-02-24T05:05:58.102Z,4.40
2023-02-24T05:08:27.258Z,4.48
2023-02-24T05:10:56.833Z,4.47
2023-02-24T05:13:31.751Z,4.47
2023-02-24T05:16:06.344Z,4.48
2023-02-24T05:18:42.896Z,4.48
2023-02-24T05:21:34.723Z,4.52
2023-02-24T05:24:07.028Z,4.50
2023-02-24T05:26:35.997Z,4.51
2023-02-24T05:29:05.589Z,4.55
2023-02-24T05:31:33.124Z,4.56
2023-02-24T05:34:03.290Z,4.60
2023-02-24T05:36:33.870Z,4.63
2023-02-24T05:39:08.056Z,4.58
2023-02-24T05:41:38.860Z,4.66
2023-02-24T05:44:09.368Z,4.70
2023-02-24T05:46:39.174Z,4.75
2023-02-24T05:49:11.844Z,4.73
2023-02-24T05:51:43.394Z,4.77
2023-02-24T05:54:13.375Z,4.78
2023-02-24T05:56:45.101Z,4.78
2023-02-24T05:59:12.966Z,4.75
2023-02-24T06:01:41.690Z,4.81
2023-02-24T06:04:09.683Z,4.82
2023-02-24T06:06:39.347Z,4.81
2023-02-24T06:09:16.622Z,4.81
2023-02-24T06:11:45.284Z,4.87
2023-02-24T06:14:12.909Z,4.86
2023-02-24T06:16:41.863Z,4.88
2023-02-24T06:19:11.012Z,4.90
2023-02-24T06:21:41.508Z,4.94
2023-02-24T06:24:14.782Z,4.96
2023-02-24T06:26:45.666Z,4.97
2023-02-24T06:29:17.407Z,4.98
2023-02-24T06:31:45.408Z,4.98
2023-02-24T06:34:18.369Z,5.03
2023-02-24T06:36:47.131Z,4.98
2023-02-24T06:39:14.726Z,5.00
2023-02-24T06:41:42.691Z,5.02
2023-02-24T06:44:10.077Z,5.02
2023-02-24T06:46:37.513Z,5.05
2023-02-24T06:49:04.747Z,5.06
2023-02-24T06:51:32.155Z,5.03
2023-02-24T06:53:59.758Z,5.05
2023-02-24T06:56:27.874Z,5.09
2023-02-24T06:58:56.444Z,5.06
2023-02-24T07:01:26.174Z,5.09
2023-02-24T07:04:17.774Z,5.09
2023-02-24T07:06:49.460Z,5.15
2023-02-24T07:09:18.872Z,5.19
2023-02-24T07:11:48.584Z,5.18
2023-02-24T07:14:15.796Z,5.18
2023-02-24T07:16:45.648Z,5.18
2023-02-24T07:19:15.626Z,5.21
2023-02-24T07:21:50.104Z,5.28
2023-02-24T07:24:24.975Z,5.29
2023-02-24T07:26:57.251Z,5.35
2023-02-24T07:29:25.850Z,5.32
2023-02-24T07:31:56.815Z,5.36
2023-02-24T07:34:25.359Z,5.39
2023-02-24T07:36:53.126Z,5.35
2023-02-24T07:39:23.001Z,5.40
2023-02-24T07:41:51.959Z,5.44
2023-02-24T07:44:20.410Z,5.46
2023-02-24T07:46:49.291Z,5.45
2023-02-24T07:49:19.937Z,5.51
2023-02-24T07:51:52.965Z,5.45
2023-02-24T07:54:22.054Z,5.46
2023-02-24T07:56:56.952Z,5.49
2023-02-24T07:59:47.161Z,5.55
2023-02-24T08:02:15.426Z,5.52
2023-02-24T08:04:50.424Z,5.54
2023-02-24T08:07:25.032Z,5.58
2023-02-24T08:10:11.771Z,5.61
2023-02-24T08:12:42.935Z,5.63
2023-02-24T08:15:17.801Z,5.61
2023-02-24T08:17:47.659Z,5.63
2023-02-24T08:20:15.648Z,5.66
2023-02-24T08:22:46.643Z,5.68
2023-02-24T08:25:19.202Z,5.73
2023-02-24T08:28:06.983Z,5.69
2023-02-24T08:30:40.647Z,5.70
2023-02-24T08:33:10.855Z,5.71
2023-02-24T08:35:44.985Z,5.80
2023-02-24T08:38:16.121Z,5.82
2023-02-24T08:40:54.582Z,5.83
2023-02-24T08:43:31.029Z,5.82
2023-02-24T08:46:13.611Z,5.88
2023-02-24T08:48:43.291Z,5.90
2023-02-24T08:51:18.067Z,5.94
2023-02-24T08:53:47.227Z,5.96
2023-02-24T08:56:24.229Z,5.94
2023-02-24T08:58:57.067Z,5.96
2023-02-24T09:01:34.959Z,5.97
2023-02-24T09:04:08.651Z,5.97
2023-02-24T09:06:45.269Z,6.00
2023-02-24T09:09:32.372Z,6.04
2023-02-24T09:12:00.398Z,5.96
2023-02-24T09:14:36.624Z,6.01
2023-02-24T09:17:06.862Z,6.01
2023-02-24T09:19:46.603Z,6.05
2023-02-24T09:22:21.268Z,6.08
2023-02-24T09:24:51.297Z,6.11
2023-02-24T09:27:18.354Z,6.11
2023-02-24T09:29:51.886Z,6.14
2023-02-24T09:32:19.081Z,6.15
2023-02-24T09:34:47.273Z,6.11
2023-02-24T09:37:33.739Z,6.19
2023-02-24T09:40:19.914Z,6.17
2023-02-24T09:42:47.071Z,6.17
2023-02-24T09:45:33.389Z,6.19
2023-02-24T09:48:10.975Z,6.18
2023-02-24T09:51:04.116Z,6.19
2023-02-24T09:53:49.604Z,6.20
2023-02-24T09:56:22.883Z,6.23
2023-02-24T09:59:14.758Z,6.16
2023-02-24T10:01:50.561Z,6.15
2023-02-24T10:04:29.816Z,6.13
2023-02-24T10:07:09.252Z,5.98
2023-02-24T10:09:41.965Z,5.88
2023-02-24T10:12:32.038Z,5.76
2023-02-24T10:15:22.848Z,5.73
2023-02-24T10:17:55.579Z,5.67
2023-02-24T10:20:39.190Z,5.55
2023-02-24T10:23:15.351Z,5.59
2023-02-24T10:25:54.341Z,5.60
2023-02-24T10:28:35.731Z,5.60
2023-02-24T10:31:27.401Z,5.49
2023-02-24T10:34:06.308Z,5.52
2023-02-24T10:36:36.853Z,5.58
2023-02-24T10:39:20.788Z,5.63
2023-02-24T10:41:57.516Z,5.68
2023-02-24T10:44:36.145Z,5.80
2023-02-24T10:47:12.751Z,5.84
2023-02-24T10:50:01.232Z,5.84
2023-02-24T10:52:55.274Z,5.86
2023-02-24T10:55:45.850Z,5.88
2023-02-24T10:58:56.974Z,5.92
2023-02-24T11:01:46.343Z,5.96
2023-02-24T11:04:39.301Z,5.96
2023-02-24T11:07:24.697Z,6.03
2023-02-24T11:10:12.301Z,6.01
2023-02-24T11:13:10.107Z,6.04
2023-02-24T11:16:02.265Z,6.08
2023-02-24T11:18:30.941Z,6.10
2023-02-24T11:21:00.715Z,6.14
2023-02-24T11:23:50.006Z,6.18
2023-02-24T11:26:21.236Z,6.18
2023-02-24T11:29:18.010Z,6.19
2023-02-24T11:32:00.064Z,6.17
2023-02-24T11:34:52.261Z,6.23
2023-02-24T11:37:43.392Z,6.32
2023-02-24T11:40:17.509Z,6.32
2023-02-24T11:42:56.234Z,6.40
2023-02-24T11:45:51.011Z,6.46
2023-02-24T11:48:19.683Z,6.48
2023-02-24T11:50:51.395Z,6.52
2023-02-24T11:53:36.285Z,6.60
2023-02-24T11:56:09.078Z,6.71
2023-02-24T11:59:13.591Z,6.79
2023-02-24T12:01:46.035Z,6.75
2023-02-24T12:04:37.565Z,6.80
2023-02-24T12:07:20.898Z,6.74
2023-02-24T12:09:53.752Z,6.69
2023-02-24T12:12:29.206Z,6.71
2023-02-24T12:14:58.258Z,6.74
2023-02-24T12:17:58.145Z,6.63
2023-02-24T12:20:35.121Z,6.51
2023-02-24T12:23:15.979Z,6.53
2023-02-24T12:26:09.081Z,6.44
2023-02-24T12:29:04.351Z,6.35
2023-02-24T12:31:45.963Z,6.25
2023-02-24T12:34:35.288Z,6.26
2023-02-24T12:37:33.194Z,6.31
2023-02-24T12:40:26.187Z,6.51
2023-02-24T12:42:59.617Z,6.63
2023-02-24T12:45:54.740Z,6.62
2023-02-24T12:48:40.705Z,6.65
2023-02-24T12:51:17.381Z,6.70
2023-02-24T12:53:52.350Z,6.78
2023-02-24T12:56:52.117Z,6.80
2023-02-24T12:59:21.637Z,6.73
2023-02-24T13:01:51.946Z,6.75
2023-02-24T13:04:39.669Z,6.74
2023-02-24T13:07:22.798Z,6.63
2023-02-24T13:10:24.082Z,6.67
2023-02-24T13:12:53.139Z,6.60
2023-02-24T13:15:25.565Z,6.58
2023-02-24T13:17:57.672Z,6.60
2023-02-24T13:20:31.314Z,6.56
2023-02-24T13:22:59.935Z,6.55
2023-02-24T13:25:34.109Z,6.49
2023-02-24T13:28:04.240Z,6.49
2023-02-24T13:30:34.020Z,6.43
2023-02-24T13:33:27.405Z,6.44
2023-02-24T13:36:16.541Z,6.41
2023-02-24T13:38:46.970Z,6.37
2023-02-24T13:41:21.680Z,6.37
2023-02-24T13:44:02.612Z,6.29
2023-02-24T13:46:58.518Z,6.30
2023-02-24T13:49:28.914Z,6.34
2023-02-24T13:52:00.572Z,6.38
2023-02-24T13:54:31.078Z,6.42
2023-02-24T13:57:49.496Z,6.45
2023-02-24T14:00:22.535Z,6.60
2023-02-24T14:02:52.992Z,6.68
2023-02-24T14:05:27.513Z,6.72
2023-02-24T14:07:55.397Z,6.82
2023-02-24T14:10:25.368Z,6.87
2023-02-24T14:13:18.406Z,6.96
2023-02-24T14:15:47.324Z,6.95
2023-02-24T14:18:26.329Z,6.95
2023-02-24T14:20:55.761Z,6.97
2023-02-24T14:23:31.814Z,6.99
2023-02-24T14:26:05.611Z,6.93
2023-02-24T14:28:34.897Z,6.97
2023-02-24T14:31:09.193Z,6.94
2023-02-24T14:33:38.048Z,6.80
2023-02-24T14:36:07.945Z,6.85
2023-02-24T14:38:36.840Z,6.84
2023-02-24T14:41:17.466Z,6.83
2023-02-24T14:43:44.592Z,6.83
2023-02-24T14:46:12.057Z,6.72
2023-02-24T14:48:39.315Z,6.77
2023-02-24T14:51:18.946Z,6.71
2023-02-24T14:53:50.208Z,6.68
2023-02-24T14:56:17.806Z,6.63
2023-02-24T14:58:52.406Z,6.68
2023-02-24T15:01:26.189Z,6.63
2023-02-24T15:04:00.598Z,6.59
2023-02-24T15:06:30.981Z,6.60
2023-02-24T15:09:01.647Z,6.55
2023-02-24T15:11:30.866Z,6.57
2023-02-24T15:14:06.275Z,6.54
2023-02-24T15:16:38.004Z,6.44
2023-02-24T15:19:05.477Z,6.47
2023-02-24T15:21:40.040Z,6.44
2023-02-24T15:24:31.103Z,6.44
2023-02-24T15:27:18.933Z,6.39
2023-02-24T15:30:05.253Z,6.41
2023-02-24T15:32:37.713Z,6.34
2023-02-24T15:35:06.139Z,6.40
2023-02-24T15:37:42.122Z,6.40
2023-02-24T15:40:20.934Z,6.33
2023-02-24T15:42:52.304Z,6.28
2023-02-24T15:45:30.104Z,6.29
2023-02-24T15:48:00.354Z,6.27
2023-02-24T15:50:29.352Z,6.16
2023-02-24T15:52:58.822Z,6.19
2023-02-24T15:55:27.928Z,6.18
2023-02-24T15:58:00.897Z,6.02
2023-02-24T16:00:28.801Z,6.09
2023-02-24T16:02:56.206Z,6.00
2023-02-24T16:05:23.628Z,5.87
2023-02-24T16:07:51.095Z,5.66
2023-02-24T16:10:22.449Z,5.49
2023-02-24T16:12:52.421Z,5.29
2023-02-24T16:15:31.744Z,5.13
2023-02-24T16:17:59.585Z,5.01
2023-02-24T16:20:31.735Z,4.80
2023-02-24T16:23:01.431Z,4.63
2023-02-24T16:25:29.902Z,4.53
2023-02-24T16:27:57.464Z,4.44
2023-02-24T16:30:27.116Z,4.40
2023-02-24T16:32:54.634Z,4.36
2023-02-24T16:35:21.947Z,4.28
2023-02-24T16:37:49.383Z,4.20
2023-02-24T16:40:20.370Z,4.17
2023-02-24T16:42:48.627Z,4.05
2023-02-24T16:45:15.864Z,4.06
2023-02-24T16:47:44.286Z,3.97
2023-02-24T16:50:20.166Z,3.98
2023-02-24T16:52:47.503Z,3.90
2023-02-24T16:55:15.238Z,3.88
2023-02-24T16:57:42.986Z,3.82
2023-02-24T17:00:12.966Z,3.78
2023-02-24T17:02:42.040Z,3.76
2023-02-24T17:05:28.937Z,3.74
2023-02-24T17:07:57.419Z,3.68
2023-02-24T17:10:25.822Z,3.61
2023-02-24T17:12:53.271Z,3.49
2023-02-24T17:15:23.034Z,3.46
2023-02-24T17:17:50.665Z,3.39
2023-02-24T17:20:19.848Z,3.35
2023-02-24T17:22:47.636Z,3.27
2023-02-24T17:25:17.316Z,3.18
2023-02-24T17:27:45.096Z,3.14
2023-02-24T17:30:14.690Z,3.09
2023-02-24T17:32:42.082Z,3.10
2023-02-24T17:35:10.332Z,3.06
2023-02-24T17:37:38.396Z,3.05
2023-02-24T17:40:06.878Z,3.08
2023-02-24T17:42:36.145Z,3.08
2023-02-24T17:45:04.399Z,3.02
2023-02-24T17:47:32.721Z,3.00
2023-02-24T17:50:00.570Z,2.97
2023-02-24T17:52:29.769Z,2.97
2023-02-24T17:54:57.292Z,2.99
2023-02-24T17:57:24.865Z,2.97
2023-02-24T17:59:52.051Z,2.99
2023-02-24T18:02:19.692Z,3.00
2023-02-24T18:04:49.443Z,3.01
2023-02-24T18:07:17.117Z,2.99
2023-02-24T18:09:45.757Z,2.92
2023-02-24T18:12:13.266Z,2.98
2023-02-24T18:14:40.812Z,2.93
2023-02-24T18:17:08.043Z,2.89
2023-02-24T18:19:35.947Z,2.85
2023-02-24T18:22:03.504Z,2.82
2023-02-24T18:24:30.713Z,2.74
2023-02-24T18:26:58.125Z,2.81
2023-02-24T18:29:25.288Z,2.80
2023-02-24T18:31:52.943Z,2.79
2023-02-24T18:34:20.442Z,2.77
2023-02-24T18:36:47.976Z,2.75
2023-02-24T18:39:15.297Z,2.71
2023-02-24T18:41:42.861Z,2.77
2023-02-24T18:44:10.439Z,2.78
2023-02-24T18:46:37.771Z,2.70
2023-02-24T18:49:06.820Z,2.65
2023-02-24T18:51:34.550Z,2.66
2023-02-24T18:54:02.756Z,2.58
2023-02-24T18:56:31.502Z,2.57
2023-02-24T18:58:59.777Z,2.59
2023-02-24T19:01:33.102Z,2.26
2023-02-24T19:04:01.490Z,2.29
2023-02-24T19:06:30.938Z,2.28
2023-02-24T19:09:09.823Z,2.13
2023-02-24T19:11:39.105Z,2.09
2023-02-24T19:14:06.836Z,2.07
2023-02-24T19:16:35.069Z,2.08
2023-02-24T19:19:02.399Z,2.02
2023-02-24T19:21:31.402Z,1.99
2023-02-24T19:24:08.378Z,1.97
2023-02-24T19:26:36.018Z,2.01
2023-02-24T19:29:04.112Z,1.92
2023-02-24T19:31:33.604Z,1.91
2023-02-24T19:34:04.040Z,1.91
2023-02-24T19:36:33.950Z,1.90
2023-02-24T19:39:01.619Z,1.88
2023-02-24T19:41:29.726Z,1.75
2023-02-24T19:43:57.332Z,1.68
2023-02-24T19:46:25.263Z,1.60
2023-02-24T19:48:52.638Z,1.56
2023-02-24T19:51:22.486Z,1.54
2023-02-24T19:53:54.003Z,1.53
2023-02-24T19:56:30.344Z,1.51
2023-02-24T19:58:59.318Z,1.51
2023-02-24T20:01:28.630Z,1.50
2023-02-24T20:04:00.513Z,1.48
2023-02-24T20:06:43.054Z,1.48
2023-02-24T20:09:15.627Z,1.45
2023-02-24T20:11:45.307Z,1.49
2023-02-24T20:14:13.428Z,1.52
2023-02-24T20:16:42.475Z,1.51
2023-02-24T20:19:11.828Z,1.44
2023-02-24T20:21:39.831Z,1.60
2023-02-24T20:24:11.145Z,1.64
2023-02-24T20:26:42.175Z,1.66
2023-02-24T20:29:11.429Z,1.66
2023-02-24T20:31:39.943Z,1.67
2023-02-24T20:34:09.303Z,1.71
2023-02-24T20:36:37.325Z,1.75
2023-02-24T20:39:06.765Z,1.83
2023-02-24T20:41:34.414Z,1.85
2023-02-24T20:44:01.645Z,1.89
2023-02-24T20:46:31.461Z,1.94
2023-02-24T20:49:06.783Z,1.93
2023-02-24T20:51:37.106Z,2.02
2023-02-24T20:54:05.898Z,2.03
2023-02-24T20:56:36.624Z,2.11
2023-02-24T20:59:31.873Z,2.18
2023-02-24T21:02:00.376Z,2.15
2023-02-24T21:04:27.518Z,2.17
2023-02-24T21:06:54.986Z,2.27
2023-02-24T21:09:22.390Z,2.31
2023-02-24T21:11:50.111Z,2.29
2023-02-24T21:14:17.655Z,2.32
2023-02-24T21:16:48.174Z,2.30
2023-02-24T21:19:15.917Z,2.32
2023-02-24T21:21:43.348Z,2.35
2023-02-24T21:24:10.866Z,2.39
2023-02-24T21:26:38.312Z,2.42
2023-02-24T21:29:05.423Z,2.48
2023-02-24T21:31:32.943Z,2.53
2023-02-24T21:34:00.055Z,2.58
2023-02-24T21:36:28.142Z,2.55
2023-02-24T21:38:55.832Z,2.58
2023-02-24T21:41:23.913Z,2.56
2023-02-24T21:43:55.662Z,2.59
2023-02-24T21:46:28.473Z,2.56
2023-02-24T21:48:57.620Z,2.57
2023-02-24T21:51:26.358Z,2.66
2023-02-24T21:53:55.169Z,2.66
2023-02-24T21:56:25.288Z,2.68
2023-02-24T21:58:56.761Z,2.69
2023-02-24T22:01:27.183Z,2.73
2023-02-24T22:03:56.106Z,2.74
2023-02-24T22:06:24.236Z,2.75
2023-02-24T22:08:51.869Z,2.73
2023-02-24T22:11:19.603Z,2.74
2023-02-24T22:13:47.274Z,2.80
2023-02-24T22:16:18.312Z,2.83
2023-02-24T22:18:46.334Z,2.81
2023-02-24T22:21:19.558Z,2.84
2023-02-24T22:23:47.743Z,2.85
2023-02-24T22:26:16.853Z,2.83
2023-02-24T22:28:45.555Z,2.81
2023-02-24T22:31:14.775Z,2.84
2023-02-24T22:33:43.262Z,2.81
2023-02-24T22:36:14.838Z,2.88
2023-02-24T22:38:43.265Z,2.90
2023-02-24T22:41:16.514Z,2.84
2023-02-24T22:43:43.788Z,2.88
2023-02-24T22:46:13.822Z,2.90
2023-02-24T22:48:41.125Z,2.81
2023-02-24T22:51:11.047Z,2.85
2023-02-24T22:53:41.256Z,2.88
2023-02-24T22:56:11.130Z,2.89
2023-02-24T22:58:39.123Z,2.93
2023-02-24T23:01:18.482Z,2.95
2023-02-24T23:03:48.621Z,2.91
2023-02-24T23:06:22.212Z,2.89
2023-02-24T23:08:50.883Z,2.91
2023-02-24T23:11:27.867Z,2.94
2023-02-24T23:13:56.248Z,3.00
2023-02-24T23:16:27.484Z,3.01
2023-02-24T23:18:56.276Z,3.01
2023-02-24T23:21:25.851Z,3.01
2023-02-24T23:23:57.855Z,3.00
2023-02-24T23:26:49.709Z,3.01
2023-02-24T23:29:18.229Z,2.98
2023-02-24T23:31:46.321Z,3.00
2023-02-24T23:34:14.639Z,2.95
2023-02-24T23:36:44.224Z,2.97
2023-02-24T23:39:13.645Z,2.94
2023-02-24T23:41:41.580Z,2.98
2023-02-24T23:44:08.908Z,2.93
2023-02-24T23:46:36.954Z,2.94
2023-02-24T23:49:05.296Z,2.92
2023-02-24T23:51:46.945Z,2.91
2023-02-24T23:54:15.713Z,2.91
2023-02-24T23:56:43.180Z,2.95
2023-02-24T23:59:10.416Z,2.96
